Time;durP1;ratioP1;P1;durP2;ratioP2;P2;SDS_P1;SDS_P2;PMS_P1;PMS_P2;Temp;Humidity;BMP_temperature;BMP_pressure;BME280_temperature;BME280_humidity;BME280_pressure;Samples;Min_cycle;Max_cycle;Signal;HPM_P1;HPM_P2
2023/11/10 00:00:14;;;;;;;2.85;1.10;;;;;;;;;;698166;28;1590;-69
2023/11/10 00:00:37;;;;;;;2.47;1.10;;;;;;;;;;699612;28;1269;-68
2023/11/10 00:00:58;;;;;;;3.08;1.05;;;;;;;;;;701957;28;4492;-68
2023/11/10 00:01:18;;;;;;;2.85;1.00;;;;;;;;;;700662;28;1487;-68
2023/11/10 00:01:40;;;;;;;3.50;1.00;;;;;;;;;;703612;28;1388;-69
2023/11/10 00:02:08;;;;;;;3.83;1.10;;;;;;;;;;701283;28;1142;-69
2023/11/10 00:02:28;;;;;;;3.47;1.20;;;;;;;;;;701258;28;2383;-68
2023/11/10 00:02:51;;;;;;;2.28;1.00;;;;;;;;;;702961;28;1165;-68
2023/11/10 00:03:12;;;;;;;3.67;1.00;;;;;;;;;;702762;28;1151;-69
2023/11/10 00:03:32;;;;;;;2.22;0.95;;;;;;;;;;700939;28;1137;-68
2023/11/10 00:03:52;;;;;;;2.37;1.00;;;;;;;;;;704454;27;4352;-69
2023/11/10 00:04:14;;;;;;;1.97;0.90;;;;;;;;;;705112;27;1265;-69
2023/11/10 00:04:38;;;;;;;3.30;0.90;;;;;;;;;;704048;28;1258;-68
2023/11/10 00:04:59;;;;;;;2.47;0.90;;;;;;;;;;702901;28;1463;-68
2023/11/10 00:05:21;;;;;;;2.58;1.00;;;;;;;;;;701854;28;2260;-67
2023/11/10 00:05:41;;;;;;;3.13;1.20;;;;;;;;;;700768;28;1159;-68
2023/11/10 00:06:02;;;;;;;2.77;1.00;;;;;;;;;;700863;28;1259;-69
2023/11/10 00:06:23;;;;;;;2.33;0.90;;;;;;;;;;698815;28;1297;-68
2023/11/10 00:06:45;;;;;;;2.30;0.90;;;;;;;;;;701126;28;4408;-68
2023/11/10 00:07:07;;;;;;;2.90;1.00;;;;;;;;;;703420;28;1157;-69
2023/11/10 00:07:28;;;;;;;2.20;1.00;;;;;;;;;;701534;28;2457;-69
2023/11/10 00:07:50;;;;;;;2.63;1.00;;;;;;;;;;705496;28;1194;-68
2023/11/10 00:08:13;;;;;;;2.78;1.05;;;;;;;;;;706167;27;1161;-68
2023/11/10 00:08:34;;;;;;;3.33;1.10;;;;;;;;;;705166;27;1141;-67
2023/11/10 00:08:55;;;;;;;3.30;1.00;;;;;;;;;;706247;28;1157;-67
2023/11/10 00:09:18;;;;;;;2.75;0.95;;;;;;;;;;703982;28;1913;-68
2023/11/10 00:09:38;;;;;;;3.00;0.95;;;;;;;;;;702760;28;1241;-68
2023/11/10 00:09:59;;;;;;;2.90;0.93;;;;;;;;;;701852;28;4386;-68
2023/11/10 00:10:19;;;;;;;2.70;0.90;;;;;;;;;;701966;28;1749;-68
2023/11/10 00:10:39;;;;;;;2.20;0.90;;;;;;;;;;702006;28;1126;-68
2023/11/10 00:10:59;;;;;;;1.65;0.90;;;;;;;;;;702543;28;1198;-69
2023/11/10 00:11:20;;;;;;;2.73;1.10;;;;;;;;;;700878;28;1768;-68
2023/11/10 00:11:44;;;;;;;3.00;1.00;;;;;;;;;;706375;27;1245;-68
2023/11/10 00:12:04;;;;;;;5.13;0.90;;;;;;;;;;704870;28;1181;-67
2023/11/10 00:12:25;;;;;;;4.97;1.17;;;;;;;;;;702096;28;1426;-68
2023/11/10 00:12:45;;;;;;;2.90;1.10;;;;;;;;;;702683;28;4585;-68
2023/11/10 00:13:05;;;;;;;3.03;1.00;;;;;;;;;;700721;28;1226;-67
2023/11/10 00:13:25;;;;;;;2.60;0.90;;;;;;;;;;695946;28;2409;-67
2023/11/10 00:13:46;;;;;;;3.13;0.97;;;;;;;;;;697897;28;1163;-67
2023/11/10 00:14:06;;;;;;;3.17;1.00;;;;;;;;;;698145;28;1213;-68
2023/11/10 00:14:26;;;;;;;2.90;1.00;;;;;;;;;;698846;28;1751;-68
2023/11/10 00:14:47;;;;;;;2.30;1.00;;;;;;;;;;697310;28;1151;-68
2023/11/10 00:15:07;;;;;;;2.80;1.05;;;;;;;;;;700872;28;1170;-68
2023/11/10 00:15:27;;;;;;;1.90;0.90;;;;;;;;;;700595;28;1675;-68
2023/11/10 00:15:49;;;;;;;2.42;0.90;;;;;;;;;;701033;28;4317;-67
2023/11/10 00:16:09;;;;;;;2.22;0.90;;;;;;;;;;701582;28;1201;-68
2023/11/10 00:16:29;;;;;;;1.60;0.80;;;;;;;;;;701106;28;1890;-68
2023/11/10 00:16:50;;;;;;;1.70;1.00;;;;;;;;;;704962;28;1246;-67
2023/11/10 00:17:10;;;;;;;1.83;1.00;;;;;;;;;;705339;28;1185;-66
2023/11/10 00:17:30;;;;;;;2.70;0.90;;;;;;;;;;704672;28;2466;-68
2023/11/10 00:17:50;;;;;;;3.20;0.93;;;;;;;;;;702171;28;1174;-69
2023/11/10 00:18:11;;;;;;;2.20;0.90;;;;;;;;;;703435;28;1223;-67
2023/11/10 00:18:31;;;;;;;1.97;1.00;;;;;;;;;;701578;28;1735;-68
2023/11/10 00:18:56;;;;;;;2.92;1.02;;;;;;;;;;701227;28;4356;-68
2023/11/10 00:19:17;;;;;;;2.33;1.10;;;;;;;;;;699112;28;1327;-67
2023/11/10 00:19:37;;;;;;;2.40;1.08;;;;;;;;;;700334;28;1324;-68
2023/11/10 00:19:58;;;;;;;1.83;0.90;;;;;;;;;;703010;28;1225;-67
2023/11/10 00:20:18;;;;;;;2.70;1.00;;;;;;;;;;695812;28;4545;-68
2023/11/10 00:20:39;;;;;;;2.37;0.90;;;;;;;;;;694520;28;1305;-68
2023/11/10 00:21:00;;;;;;;2.40;0.90;;;;;;;;;;693027;28;1099;-67
2023/11/10 00:21:20;;;;;;;2.00;0.80;;;;;;;;;;696395;28;1436;-68
2023/11/10 00:21:41;;;;;;;2.00;0.83;;;;;;;;;;694649;28;4322;-68
2023/11/10 00:22:03;;;;;;;2.53;0.93;;;;;;;;;;699505;28;1202;-67
2023/11/10 00:22:23;;;;;;;2.00;0.98;;;;;;;;;;701305;28;1131;-68
2023/11/10 00:22:44;;;;;;;2.70;1.00;;;;;;;;;;703569;28;1142;-68
2023/11/10 00:23:06;;;;;;;3.78;1.15;;;;;;;;;;702836;28;1110;-67
2023/11/10 00:23:27;;;;;;;3.45;1.00;;;;;;;;;;702674;28;1569;-67
2023/11/10 00:23:47;;;;;;;3.13;1.00;;;;;;;;;;706138;28;1154;-68
2023/11/10 00:24:08;;;;;;;3.28;0.95;;;;;;;;;;705001;28;1186;-68
2023/11/10 00:24:29;;;;;;;4.38;1.00;;;;;;;;;;700979;28;2452;-68
2023/11/10 00:24:49;;;;;;;3.00;0.90;;;;;;;;;;702102;28;4266;-67
2023/11/10 00:25:11;;;;;;;2.57;1.00;;;;;;;;;;701200;28;1206;-67
2023/11/10 00:25:31;;;;;;;3.38;1.05;;;;;;;;;;700881;28;2214;-67
2023/11/10 00:25:52;;;;;;;3.03;1.00;;;;;;;;;;700935;28;1154;-67
2023/11/10 00:26:25;;;;;;;2.88;0.98;;;;;;;;;;703265;28;1177;-67
2023/11/10 00:26:46;;;;;;;1.77;0.90;;;;;;;;;;702781;28;1162;-68
2023/11/10 00:27:10;;;;;;;1.60;0.90;;;;;;;;;;701274;28;1158;-68
2023/11/10 00:27:30;;;;;;;1.73;0.95;;;;;;;;;;698105;28;1153;-67
2023/11/10 00:27:50;;;;;;;1.97;0.90;;;;;;;;;;699533;28;4329;-68
2023/11/10 00:28:11;;;;;;;2.30;1.03;;;;;;;;;;698768;28;1293;-67
2023/11/10 00:28:31;;;;;;;2.40;0.93;;;;;;;;;;698803;28;1747;-68
2023/11/10 00:28:52;;;;;;;3.23;1.00;;;;;;;;;;700173;28;1151;-67
2023/11/10 00:29:12;;;;;;;4.22;1.10;;;;;;;;;;700826;28;1913;-68
2023/11/10 00:29:33;;;;;;;2.87;1.00;;;;;;;;;;696572;28;1385;-68
2023/11/10 00:29:54;;;;;;;3.42;1.10;;;;;;;;;;692228;28;1278;-68
2023/11/10 00:30:15;;;;;;;4.30;1.10;;;;;;;;;;690372;28;1818;-68
2023/11/10 00:30:36;;;;;;;3.20;1.00;;;;;;;;;;692139;28;1333;-67
2023/11/10 00:30:57;;;;;;;3.17;1.00;;;;;;;;;;689860;28;4240;-67
2023/11/10 00:31:18;;;;;;;4.03;1.10;;;;;;;;;;691903;28;1810;-67
2023/11/10 00:31:38;;;;;;;4.28;1.25;;;;;;;;;;692782;28;1348;-68
2023/11/10 00:31:59;;;;;;;2.47;1.10;;;;;;;;;;696237;28;1413;-68
2023/11/10 00:32:19;;;;;;;3.40;1.00;;;;;;;;;;696777;28;2330;-68
2023/11/10 00:32:40;;;;;;;3.00;0.90;;;;;;;;;;694648;28;1440;-67
2023/11/10 00:33:00;;;;;;;2.60;1.20;;;;;;;;;;695942;28;1275;-67
2023/11/10 00:33:20;;;;;;;2.27;1.10;;;;;;;;;;694672;28;2107;-67
2023/11/10 00:33:41;;;;;;;2.10;1.03;;;;;;;;;;694858;28;4234;-67
2023/11/10 00:34:01;;;;;;;2.47;0.93;;;;;;;;;;698343;28;1141;-67
2023/11/10 00:34:21;;;;;;;2.00;0.80;;;;;;;;;;694779;28;1857;-66
2023/11/10 00:34:41;;;;;;;1.77;0.80;;;;;;;;;;695417;28;1270;-66
2023/11/10 00:35:02;;;;;;;2.60;1.00;;;;;;;;;;694222;28;1356;-67
2023/11/10 00:35:23;;;;;;;2.97;1.00;;;;;;;;;;693597;28;1736;-67
2023/11/10 00:35:43;;;;;;;2.72;1.00;;;;;;;;;;693681;28;1347;-68
2023/11/10 00:36:04;;;;;;;2.57;0.97;;;;;;;;;;696075;28;1329;-67
2023/11/10 00:36:24;;;;;;;2.35;0.90;;;;;;;;;;694702;28;1491;-67
2023/11/10 00:36:45;;;;;;;2.80;1.10;;;;;;;;;;697971;28;4222;-67
2023/11/10 00:37:06;;;;;;;3.60;1.25;;;;;;;;;;693711;28;1143;-67
2023/11/10 00:37:26;;;;;;;2.97;1.20;;;;;;;;;;693184;28;1921;-67
2023/11/10 00:37:50;;;;;;;3.08;1.00;;;;;;;;;;694706;28;1146;-67
2023/11/10 00:38:10;;;;;;;2.50;0.90;;;;;;;;;;696088;28;1287;-67
2023/11/10 00:38:31;;;;;;;2.13;0.80;;;;;;;;;;694380;28;1673;-67
2023/11/10 00:38:51;;;;;;;2.22;1.00;;;;;;;;;;694829;28;5059;-66
2023/11/10 00:39:12;;;;;;;1.70;0.90;;;;;;;;;;698551;28;1155;-67
2023/11/10 00:39:32;;;;;;;2.50;1.07;;;;;;;;;;698886;28;1711;-67
2023/11/10 00:39:57;;;;;;;2.60;1.02;;;;;;;;;;698947;28;4227;-66
2023/11/10 00:40:18;;;;;;;1.67;0.95;;;;;;;;;;702208;28;2388;-67
2023/11/10 00:40:38;;;;;;;2.70;1.00;;;;;;;;;;697816;28;1293;-66
2023/11/10 00:40:58;;;;;;;3.23;1.10;;;;;;;;;;697682;28;1254;-67
2023/11/10 00:41:21;;;;;;;2.78;1.10;;;;;;;;;;695732;28;1573;-67
2023/11/10 00:41:44;;;;;;;3.60;1.02;;;;;;;;;;698119;28;1245;-67
2023/11/10 00:42:04;;;;;;;3.47;1.20;;;;;;;;;;697222;28;1222;-66
2023/11/10 00:42:24;;;;;;;2.75;1.10;;;;;;;;;;697879;28;1709;-67
2023/11/10 00:42:45;;;;;;;2.43;1.00;;;;;;;;;;700069;28;4295;-67
2023/11/10 00:43:05;;;;;;;3.40;1.10;;;;;;;;;;700732;28;1142;-67
2023/11/10 00:43:26;;;;;;;3.73;1.10;;;;;;;;;;701907;28;1864;-67
2023/11/10 00:43:47;;;;;;;3.03;1.10;;;;;;;;;;703619;28;1134;-67
2023/11/10 00:44:07;;;;;;;2.95;1.10;;;;;;;;;;698141;28;1119;-68
2023/11/10 00:44:28;;;;;;;3.03;1.13;;;;;;;;;;699732;28;1118;-68
2023/11/10 00:44:48;;;;;;;2.03;1.00;;;;;;;;;;698345;28;1317;-67
2023/11/10 00:45:09;;;;;;;2.10;0.90;;;;;;;;;;698002;28;1103;-67
2023/11/10 00:45:29;;;;;;;2.58;0.88;;;;;;;;;;696655;28;1804;-67
2023/11/10 00:45:54;;;;;;;1.90;0.90;;;;;;;;;;695339;28;4308;-68
2023/11/10 00:46:14;;;;;;;2.78;1.17;;;;;;;;;;697935;28;1299;-67
2023/11/10 00:46:34;;;;;;;2.97;1.20;;;;;;;;;;700302;28;1816;-67
2023/11/10 00:46:54;;;;;;;3.47;1.17;;;;;;;;;;702493;28;1178;-68
2023/11/10 00:47:15;;;;;;;4.13;1.10;;;;;;;;;;699117;28;1457;-67
2023/11/10 00:47:35;;;;;;;3.93;1.20;;;;;;;;;;700713;28;1572;-67
2023/11/10 00:47:56;;;;;;;4.03;1.20;;;;;;;;;;703656;28;1189;-68
2023/11/10 00:48:17;;;;;;;3.07;1.00;;;;;;;;;;698413;28;1476;-68
2023/11/10 00:48:38;;;;;;;2.85;1.00;;;;;;;;;;698626;28;1360;-68
2023/11/10 00:48:59;;;;;;;4.13;0.90;;;;;;;;;;698232;28;4367;-68
2023/11/10 00:49:21;;;;;;;3.38;0.98;;;;;;;;;;695083;28;1940;-69
2023/11/10 00:49:42;;;;;;;2.13;1.00;;;;;;;;;;695304;28;1242;-68
2023/11/10 00:50:02;;;;;;;1.70;1.00;;;;;;;;;;697010;28;1286;-67
2023/11/10 00:50:22;;;;;;;2.10;0.90;;;;;;;;;;696319;28;1470;-68
2023/11/10 00:50:43;;;;;;;1.93;0.90;;;;;;;;;;700207;28;1201;-68
2023/11/10 00:51:03;;;;;;;1.73;0.95;;;;;;;;;;701665;27;1282;-68
2023/11/10 00:51:25;;;;;;;3.80;1.10;;;;;;;;;;705038;27;2456;-68
2023/11/10 00:51:46;;;;;;;1.95;1.00;;;;;;;;;;701829;28;4311;-68
2023/11/10 00:52:06;;;;;;;2.50;1.00;;;;;;;;;;703906;28;1138;-67
2023/11/10 00:52:27;;;;;;;2.53;0.98;;;;;;;;;;698185;28;1441;-67
2023/11/10 00:52:47;;;;;;;2.87;1.03;;;;;;;;;;700767;28;1194;-67
2023/11/10 00:53:08;;;;;;;2.42;1.17;;;;;;;;;;701019;28;1292;-67
2023/11/10 00:53:28;;;;;;;3.10;1.10;;;;;;;;;;694733;28;1597;-68
2023/11/10 00:53:48;;;;;;;2.40;1.13;;;;;;;;;;697260;28;1261;-67
2023/11/10 00:54:09;;;;;;;2.83;1.20;;;;;;;;;;698318;28;1155;-68
2023/11/10 00:54:29;;;;;;;2.33;1.07;;;;;;;;;;698061;28;1414;-68
2023/11/10 00:54:50;;;;;;;1.92;0.90;;;;;;;;;;700318;28;4278;-68
2023/11/10 00:55:10;;;;;;;3.95;1.23;;;;;;;;;;701755;28;1265;-67
2023/11/10 00:55:31;;;;;;;2.80;0.97;;;;;;;;;;701031;28;1798;-67
2023/11/10 00:55:53;;;;;;;2.78;1.00;;;;;;;;;;703424;28;1178;-67
2023/11/10 00:56:13;;;;;;;2.38;0.93;;;;;;;;;;699155;28;1618;-68
2023/11/10 00:56:33;;;;;;;3.00;1.10;;;;;;;;;;698757;28;2479;-67
2023/11/10 00:56:54;;;;;;;3.03;1.10;;;;;;;;;;700920;28;1352;-67
2023/11/10 00:57:14;;;;;;;2.40;0.93;;;;;;;;;;700206;28;1151;-68
2023/11/10 00:57:34;;;;;;;2.93;1.00;;;;;;;;;;698650;28;1710;-68
2023/11/10 00:57:55;;;;;;;2.00;0.97;;;;;;;;;;700160;28;4389;-68
2023/11/10 00:58:15;;;;;;;2.33;0.98;;;;;;;;;;702827;28;1174;-67
2023/11/10 00:58:36;;;;;;;2.10;0.90;;;;;;;;;;702606;28;1467;-68
2023/11/10 00:58:58;;;;;;;1.63;0.80;;;;;;;;;;699518;28;1223;-67
2023/11/10 00:59:18;;;;;;;2.17;0.85;;;;;;;;;;699469;28;1103;-67
2023/11/10 00:59:39;;;;;;;2.27;0.90;;;;;;;;;;703484;28;1586;-68
2023/11/10 00:59:59;;;;;;;2.30;1.10;;;;;;;;;;701956;28;1241;-67
2023/11/10 01:00:20;;;;;;;3.42;1.25;;;;;;;;;;702041;28;2082;-67
2023/11/10 01:00:40;;;;;;;4.70;1.10;;;;;;;;;;700290;28;4350;-68
2023/11/10 01:01:01;;;;;;;1.83;0.90;;;;;;;;;;703496;28;1217;-67
2023/11/10 01:01:22;;;;;;;2.00;0.90;;;;;;;;;;702620;28;2237;-67
2023/11/10 01:01:47;;;;;;;1.87;0.90;;;;;;;;;;700906;28;1570;-67
2023/11/10 01:02:08;;;;;;;3.10;1.00;;;;;;;;;;700652;28;1197;-68
2023/11/10 01:02:28;;;;;;;3.15;1.13;;;;;;;;;;701066;28;1462;-67
2023/11/10 01:02:53;;;;;;;4.37;1.30;;;;;;;;;;703926;28;1285;-67
2023/11/10 01:03:14;;;;;;;5.15;1.35;;;;;;;;;;703552;28;1352;-67
2023/11/10 01:03:34;;;;;;;3.35;1.35;;;;;;;;;;700437;28;1501;-67
2023/11/10 01:03:55;;;;;;;2.05;0.90;;;;;;;;;;702407;28;4294;-67
2023/11/10 01:04:15;;;;;;;2.60;0.90;;;;;;;;;;699792;28;1119;-67
2023/11/10 01:04:35;;;;;;;2.63;0.90;;;;;;;;;;698945;28;1748;-67
2023/11/10 01:04:56;;;;;;;2.63;1.05;;;;;;;;;;696855;28;1214;-67
2023/11/10 01:05:19;;;;;;;2.50;1.10;;;;;;;;;;700519;28;1310;-66
2023/11/10 01:05:43;;;;;;;2.17;1.05;;;;;;;;;;703534;28;1258;-67
2023/11/10 01:06:03;;;;;;;2.25;1.00;;;;;;;;;;701739;28;1323;-68
2023/11/10 01:06:23;;;;;;;2.20;0.90;;;;;;;;;;702329;28;2289;-66
2023/11/10 01:06:44;;;;;;;1.57;0.90;;;;;;;;;;702740;28;4286;-67
2023/11/10 01:07:04;;;;;;;2.35;0.90;;;;;;;;;;704138;27;1290;-68
2023/11/10 01:07:25;;;;;;;3.30;1.10;;;;;;;;;;702929;27;1846;-66
2023/11/10 01:07:45;;;;;;;2.40;0.90;;;;;;;;;;705444;27;1154;-67
2023/11/10 01:08:05;;;;;;;2.80;0.90;;;;;;;;;;706822;27;1177;-67
2023/11/10 01:08:25;;;;;;;2.73;1.00;;;;;;;;;;702000;28;1408;-66
2023/11/10 01:08:46;;;;;;;1.60;0.90;;;;;;;;;;701808;28;1182;-67
2023/11/10 01:09:06;;;;;;;1.90;0.90;;;;;;;;;;699695;28;1330;-67
2023/11/10 01:09:26;;;;;;;3.10;1.07;;;;;;;;;;699640;28;1910;-66
2023/11/10 01:09:46;;;;;;;2.57;1.00;;;;;;;;;;698085;28;4495;-68
2023/11/10 01:10:07;;;;;;;1.75;0.90;;;;;;;;;;698352;28;1151;-67
2023/11/10 01:10:28;;;;;;;2.03;0.80;;;;;;;;;;699204;28;1723;-68
2023/11/10 01:10:48;;;;;;;2.30;1.00;;;;;;;;;;701123;28;1238;-66
2023/11/10 01:11:08;;;;;;;1.90;0.90;;;;;;;;;;700535;28;1502;-67
2023/11/10 01:11:29;;;;;;;2.17;0.80;;;;;;;;;;699304;28;1727;-67
2023/11/10 01:11:49;;;;;;;2.10;0.90;;;;;;;;;;700165;28;1151;-67
2023/11/10 01:12:10;;;;;;;2.93;0.90;;;;;;;;;;699432;28;968;-66
2023/11/10 01:12:30;;;;;;;2.28;0.90;;;;;;;;;;698314;28;1898;-66
2023/11/10 01:12:50;;;;;;;2.13;0.80;;;;;;;;;;697135;28;4277;-66
2023/11/10 01:13:14;;;;;;;2.13;0.75;;;;;;;;;;699491;28;1178;-65
2023/11/10 01:13:37;;;;;;;3.40;0.98;;;;;;;;;;701973;28;1462;-66
2023/11/10 01:13:58;;;;;;;4.20;1.00;;;;;;;;;;700747;28;1392;-67
2023/11/10 01:14:20;;;;;;;2.97;0.90;;;;;;;;;;699805;28;1243;-66
2023/11/10 01:14:41;;;;;;;1.75;0.90;;;;;;;;;;702156;28;1193;-66
2023/11/10 01:15:01;;;;;;;2.35;0.90;;;;;;;;;;701212;28;1332;-67
2023/11/10 01:15:21;;;;;;;2.63;0.97;;;;;;;;;;699715;28;2533;-67
2023/11/10 01:15:42;;;;;;;3.17;1.10;;;;;;;;;;697813;28;4441;-66
2023/11/10 01:16:02;;;;;;;2.17;0.90;;;;;;;;;;701045;28;1190;-66
2023/11/10 01:16:23;;;;;;;1.87;0.80;;;;;;;;;;699190;28;5476;-67
2023/11/10 01:16:44;;;;;;;2.85;0.90;;;;;;;;;;699396;28;1234;-67
2023/11/10 01:17:04;;;;;;;2.83;0.80;;;;;;;;;;698783;28;1311;-65
2023/11/10 01:17:24;;;;;;;2.53;0.90;;;;;;;;;;695461;28;1950;-67
2023/11/10 01:17:45;;;;;;;2.65;0.90;;;;;;;;;;698037;28;1203;-66
2023/11/10 01:18:05;;;;;;;2.80;1.10;;;;;;;;;;698678;28;1209;-66
2023/11/10 01:18:26;;;;;;;2.33;1.10;;;;;;;;;;697288;28;1344;-68
2023/11/10 01:18:46;;;;;;;2.23;0.83;;;;;;;;;;697084;28;4459;-68
2023/11/10 01:19:08;;;;;;;1.77;0.85;;;;;;;;;;695872;28;1199;-67
2023/11/10 01:19:28;;;;;;;2.35;0.98;;;;;;;;;;696986;28;1459;-67
2023/11/10 01:19:48;;;;;;;2.70;1.20;;;;;;;;;;698122;28;1604;-66
2023/11/10 01:20:10;;;;;;;3.00;1.07;;;;;;;;;;698073;28;1196;-67
2023/11/10 01:20:31;;;;;;;3.25;1.08;;;;;;;;;;697012;28;1802;-66
2023/11/10 01:20:52;;;;;;;2.17;0.77;;;;;;;;;;701536;28;1205;-67
2023/11/10 01:21:12;;;;;;;2.83;0.90;;;;;;;;;;701216;28;1343;-67
2023/11/10 01:21:32;;;;;;;1.47;1.00;;;;;;;;;;699719;28;2248;-67
2023/11/10 01:21:53;;;;;;;2.13;0.83;;;;;;;;;;698765;28;4221;-67
2023/11/10 01:22:13;;;;;;;1.98;0.80;;;;;;;;;;700090;28;1293;-66
2023/11/10 01:22:33;;;;;;;1.60;0.63;;;;;;;;;;698658;28;1814;-66
2023/11/10 01:22:54;;;;;;;1.30;0.70;;;;;;;;;;699790;28;1131;-67
2023/11/10 01:23:14;;;;;;;2.22;0.80;;;;;;;;;;702168;28;1179;-66
2023/11/10 01:23:35;;;;;;;2.42;0.80;;;;;;;;;;699808;28;1467;-67
2023/11/10 01:23:55;;;;;;;2.53;0.70;;;;;;;;;;698129;28;1297;-65
2023/11/10 01:24:16;;;;;;;3.67;1.10;;;;;;;;;;697456;28;1163;-67
2023/11/10 01:24:38;;;;;;;3.00;0.90;;;;;;;;;;696915;28;1602;-66
2023/11/10 01:24:58;;;;;;;1.77;0.80;;;;;;;;;;693839;28;4279;-67
2023/11/10 01:25:18;;;;;;;2.00;0.90;;;;;;;;;;695482;28;1199;-67
2023/11/10 01:25:39;;;;;;;2.03;0.90;;;;;;;;;;694769;28;1686;-67
2023/11/10 01:25:59;;;;;;;1.53;0.73;;;;;;;;;;699272;28;1020;-68
2023/11/10 01:26:19;;;;;;;2.03;0.70;;;;;;;;;;698419;28;1493;-67
2023/11/10 01:26:39;;;;;;;2.40;0.90;;;;;;;;;;699989;28;1333;-67
2023/11/10 01:27:00;;;;;;;2.57;0.80;;;;;;;;;;702885;28;1228;-68
2023/11/10 01:27:20;;;;;;;2.33;0.80;;;;;;;;;;699108;28;1584;-68
2023/11/10 01:27:44;;;;;;;2.73;0.97;;;;;;;;;;702049;28;4319;-67
2023/11/10 01:28:04;;;;;;;2.08;0.90;;;;;;;;;;698079;28;1512;-67
2023/11/10 01:28:25;;;;;;;1.80;0.93;;;;;;;;;;696521;28;1556;-67
2023/11/10 01:28:46;;;;;;;2.22;0.98;;;;;;;;;;699077;28;1187;-67
2023/11/10 01:29:07;;;;;;;2.83;0.90;;;;;;;;;;699398;28;1186;-67
2023/11/10 01:29:27;;;;;;;2.47;1.03;;;;;;;;;;700171;28;2384;-66
2023/11/10 01:29:47;;;;;;;2.57;1.00;;;;;;;;;;700602;28;984;-67
2023/11/10 01:30:09;;;;;;;2.33;1.20;;;;;;;;;;703212;28;1138;-68
2023/11/10 01:30:29;;;;;;;2.22;1.00;;;;;;;;;;701282;28;1465;-67
2023/11/10 01:30:51;;;;;;;2.27;0.80;;;;;;;;;;699398;28;4269;-67
2023/11/10 01:31:11;;;;;;;1.70;0.80;;;;;;;;;;697540;28;1474;-68
2023/11/10 01:31:32;;;;;;;2.70;0.80;;;;;;;;;;696463;28;1724;-68
2023/11/10 01:31:52;;;;;;;1.90;0.90;;;;;;;;;;700255;28;1316;-68
2023/11/10 01:32:13;;;;;;;2.57;1.07;;;;;;;;;;700887;28;1284;-67
2023/11/10 01:32:33;;;;;;;2.25;1.02;;;;;;;;;;696606;28;1850;-68
2023/11/10 01:32:54;;;;;;;2.17;0.90;;;;;;;;;;700777;28;1266;-67
2023/11/10 01:33:15;;;;;;;2.63;1.00;;;;;;;;;;701386;28;826;-67
2023/11/10 01:33:35;;;;;;;1.63;0.90;;;;;;;;;;699677;28;2356;-68
2023/11/10 01:33:55;;;;;;;2.60;0.83;;;;;;;;;;700230;28;4251;-67
2023/11/10 01:34:16;;;;;;;2.10;0.80;;;;;;;;;;701451;28;1333;-68
2023/11/10 01:34:37;;;;;;;2.15;0.80;;;;;;;;;;702464;28;1751;-67
2023/11/10 01:34:57;;;;;;;4.03;1.00;;;;;;;;;;703451;28;1597;-65
2023/11/10 01:35:18;;;;;;;3.25;1.00;;;;;;;;;;700210;28;1182;-67
2023/11/10 01:35:38;;;;;;;2.73;0.90;;;;;;;;;;698443;28;1806;-68
2023/11/10 01:35:58;;;;;;;1.57;0.70;;;;;;;;;;700893;28;1314;-67
2023/11/10 01:36:18;;;;;;;1.98;0.80;;;;;;;;;;699128;28;1071;-67
2023/11/10 01:36:39;;;;;;;2.57;1.10;;;;;;;;;;694321;28;4536;-66
2023/11/10 01:37:00;;;;;;;2.35;1.02;;;;;;;;;;700930;28;1372;-68
2023/11/10 01:37:20;;;;;;;1.90;0.80;;;;;;;;;;701988;28;1498;-67
2023/11/10 01:37:41;;;;;;;2.60;0.90;;;;;;;;;;699891;28;1170;-67
2023/11/10 01:38:01;;;;;;;1.83;0.87;;;;;;;;;;699952;28;1099;-67
2023/11/10 01:38:22;;;;;;;2.40;0.90;;;;;;;;;;698934;28;1851;-68
2023/11/10 01:38:42;;;;;;;2.63;0.90;;;;;;;;;;703498;28;1221;-66
2023/11/10 01:39:08;;;;;;;3.43;1.10;;;;;;;;;;702498;28;5855;-67
2023/11/10 01:39:28;;;;;;;1.90;0.82;;;;;;;;;;702055;27;1528;-68
2023/11/10 01:39:48;;;;;;;2.57;0.90;;;;;;;;;;705686;27;4211;-67
2023/11/10 01:40:09;;;;;;;2.27;0.80;;;;;;;;;;706536;27;1181;-68
2023/11/10 01:40:50;;;;;;;3.42;0.80;;;;;;;;;;701409;28;2345;-68
2023/11/10 01:41:10;;;;;;;2.10;0.98;;;;;;;;;;701842;28;1302;-68
2023/11/10 01:41:32;;;;;;;1.80;1.00;;;;;;;;;;702876;28;1871;-68
2023/11/10 01:41:53;;;;;;;2.40;0.90;;;;;;;;;;701990;28;1250;-66
2023/11/10 01:42:13;;;;;;;2.20;1.20;;;;;;;;;;699028;28;1219;-67
2023/11/10 01:42:33;;;;;;;1.80;1.10;;;;;;;;;;695092;28;2436;-68
2023/11/10 01:42:54;;;;;;;2.70;0.90;;;;;;;;;;695212;28;4387;-66
2023/11/10 01:43:14;;;;;;;3.10;1.00;;;;;;;;;;697803;28;1262;-66
2023/11/10 01:43:35;;;;;;;2.58;1.10;;;;;;;;;;694180;28;1593;-68
2023/11/10 01:43:55;;;;;;;2.53;1.17;;;;;;;;;;696959;28;1181;-68
2023/11/10 01:44:15;;;;;;;2.88;1.10;;;;;;;;;;697907;28;1008;-69
2023/11/10 01:44:36;;;;;;;3.03;1.00;;;;;;;;;;699376;28;1235;-68
2023/11/10 01:44:57;;;;;;;2.97;0.93;;;;;;;;;;695588;28;1368;-67
2023/11/10 01:45:18;;;;;;;2.63;1.00;;;;;;;;;;700802;28;1329;-68
2023/11/10 01:45:38;;;;;;;2.60;1.00;;;;;;;;;;699310;28;1658;-68
2023/11/10 01:45:59;;;;;;;1.90;0.90;;;;;;;;;;697713;28;4443;-69
2023/11/10 01:46:52;;;;;;;1.88;0.80;;;;;;;;;;697916;28;1325;-66
2023/11/10 01:47:12;;;;;;;1.88;0.80;;;;;;;;;;694334;28;1573;-65
2023/11/10 01:47:33;;;;;;;2.58;0.90;;;;;;;;;;692797;28;1843;-66
2023/11/10 01:47:53;;;;;;;1.30;0.80;;;;;;;;;;694471;28;1182;-66
2023/11/10 01:48:14;;;;;;;2.07;0.90;;;;;;;;;;695676;28;1353;-67
2023/11/10 01:48:34;;;;;;;3.53;1.10;;;;;;;;;;696659;28;2705;-68
2023/11/10 01:48:54;;;;;;;3.67;1.10;;;;;;;;;;697749;28;4313;-68
2023/11/10 01:49:18;;;;;;;1.83;1.00;;;;;;;;;;697890;28;1060;-67
2023/11/10 01:49:39;;;;;;;2.60;0.90;;;;;;;;;;696839;28;1750;-67
2023/11/10 01:50:01;;;;;;;2.97;1.00;;;;;;;;;;701132;28;1503;-70
2023/11/10 01:50:22;;;;;;;2.30;0.80;;;;;;;;;;700448;28;1914;-69
2023/11/10 01:50:43;;;;;;;2.10;0.80;;;;;;;;;;706277;27;1328;-67
2023/11/10 01:51:04;;;;;;;2.40;1.00;;;;;;;;;;704738;27;935;-67
2023/11/10 01:51:29;;;;;;;2.25;0.98;;;;;;;;;;703572;27;2325;-68
2023/11/10 01:51:50;;;;;;;1.50;0.80;;;;;;;;;;703345;28;4360;-67
2023/11/10 01:52:12;;;;;;;2.20;0.90;;;;;;;;;;703936;28;1225;-66
2023/11/10 01:52:32;;;;;;;2.70;0.93;;;;;;;;;;696728;28;2560;-68
2023/11/10 01:52:53;;;;;;;2.43;0.87;;;;;;;;;;695131;28;1199;-67
2023/11/10 01:53:13;;;;;;;3.53;0.90;;;;;;;;;;692285;28;917;-68
2023/11/10 01:53:34;;;;;;;2.72;0.98;;;;;;;;;;693951;28;1896;-68
2023/11/10 01:53:54;;;;;;;3.23;1.10;;;;;;;;;;701024;28;1197;-67
2023/11/10 01:54:16;;;;;;;3.53;1.00;;;;;;;;;;700396;28;1158;-67
2023/11/10 01:54:37;;;;;;;2.88;0.90;;;;;;;;;;698898;28;1205;-67
2023/11/10 01:54:57;;;;;;;3.60;1.00;;;;;;;;;;702588;28;4292;-67
2023/11/10 01:55:18;;;;;;;2.27;0.80;;;;;;;;;;703265;28;1222;-68
2023/11/10 01:55:40;;;;;;;2.17;0.90;;;;;;;;;;700775;28;2342;-67
2023/11/10 01:56:00;;;;;;;2.17;0.82;;;;;;;;;;701220;28;2011;-67
2023/11/10 01:56:23;;;;;;;2.43;0.90;;;;;;;;;;701128;28;1638;-67
2023/11/10 01:56:46;;;;;;;2.03;0.80;;;;;;;;;;697823;28;1355;-66
2023/11/10 01:57:09;;;;;;;3.33;0.90;;;;;;;;;;694099;28;1410;-67
2023/11/10 01:57:29;;;;;;;1.90;0.90;;;;;;;;;;689849;28;2336;-66
2023/11/10 01:57:50;;;;;;;2.80;1.20;;;;;;;;;;692257;28;4393;-67
2023/11/10 01:58:11;;;;;;;2.90;0.90;;;;;;;;;;696245;28;1325;-67
2023/11/10 01:58:31;;;;;;;2.72;0.90;;;;;;;;;;698782;28;1736;-67
2023/11/10 01:58:52;;;;;;;2.10;0.90;;;;;;;;;;696109;28;1181;-67
2023/11/10 01:59:14;;;;;;;2.50;0.90;;;;;;;;;;696606;28;1187;-67
2023/11/10 01:59:34;;;;;;;2.60;0.80;;;;;;;;;;697763;28;1495;-67
2023/11/10 01:59:58;;;;;;;2.80;1.00;;;;;;;;;;701159;28;1210;-69
2023/11/10 02:00:21;;;;;;;1.33;0.80;;;;;;;;;;700500;28;1352;-67
2023/11/10 02:00:42;;;;;;;1.40;0.80;;;;;;;;;;699890;28;4533;-68
2023/11/10 02:01:04;;;;;;;1.67;0.87;;;;;;;;;;700548;28;1599;-68
2023/11/10 02:01:24;;;;;;;2.38;0.98;;;;;;;;;;699365;28;2317;-67
2023/11/10 02:01:47;;;;;;;2.40;1.10;;;;;;;;;;696786;28;1206;-67
2023/11/10 02:02:09;;;;;;;2.78;1.10;;;;;;;;;;698584;28;1368;-67
2023/11/10 02:02:29;;;;;;;2.92;0.90;;;;;;;;;;699335;28;1535;-68
2023/11/10 02:02:49;;;;;;;2.58;0.90;;;;;;;;;;700609;28;1514;-68
2023/11/10 02:03:10;;;;;;;2.90;0.80;;;;;;;;;;697477;28;1263;-68
2023/11/10 02:03:30;;;;;;;2.65;0.95;;;;;;;;;;697661;28;1739;-67
2023/11/10 02:03:52;;;;;;;3.05;1.00;;;;;;;;;;700583;28;4852;-69
2023/11/10 02:04:13;;;;;;;2.28;0.90;;;;;;;;;;697738;28;1175;-67
2023/11/10 02:04:33;;;;;;;2.85;1.10;;;;;;;;;;696381;28;2375;-66
2023/11/10 02:04:53;;;;;;;3.23;1.03;;;;;;;;;;695396;28;1195;-69
2023/11/10 02:05:14;;;;;;;3.00;1.10;;;;;;;;;;696721;28;1151;-72
2023/11/10 02:05:34;;;;;;;2.25;0.98;;;;;;;;;;696016;28;1845;-69
2023/11/10 02:05:55;;;;;;;2.00;0.90;;;;;;;;;;700938;28;1226;-69
2023/11/10 02:06:15;;;;;;;2.70;0.87;;;;;;;;;;702921;28;1142;-68
2023/11/10 02:06:36;;;;;;;2.70;0.93;;;;;;;;;;701800;28;1529;-68
2023/11/10 02:06:57;;;;;;;2.30;1.00;;;;;;;;;;705588;27;4448;-69
2023/11/10 02:07:17;;;;;;;2.45;1.00;;;;;;;;;;700553;28;1293;-68
2023/11/10 02:07:38;;;;;;;2.50;0.90;;;;;;;;;;699595;28;1803;-69
2023/11/10 02:07:59;;;;;;;2.33;0.90;;;;;;;;;;701213;28;1320;-68
2023/11/10 02:08:19;;;;;;;2.35;0.90;;;;;;;;;;700864;28;928;-68
2023/11/10 02:08:39;;;;;;;2.72;0.90;;;;;;;;;;699494;28;1725;-67
2023/11/10 02:09:00;;;;;;;1.97;0.90;;;;;;;;;;698656;28;1110;-67
2023/11/10 02:09:21;;;;;;;2.03;1.00;;;;;;;;;;696291;28;1910;-68
2023/11/10 02:09:41;;;;;;;1.92;0.98;;;;;;;;;;696470;28;4310;-69
2023/11/10 02:10:02;;;;;;;2.10;0.90;;;;;;;;;;697708;28;1222;-67